Portada
METAR-TAF:

METAR-TAF

Aeroports :

Maré, Nova Caledònia

latitud: 21-28-53S, longitud: 168-02-15E, altitud: 42 m

METAR: manca

Hora: 05:11 (18:11 UTC)

Pronòstic

L'informe es va fer fa 1 hora i 11 minuts, a les 17:00 UTC
Pronòstic vàlid del 17 a les 18 UTC al 18 a les 18 UTC
Vent 6 kt del Est/Sud-Est
Visibilitat 10 km o més
Núvols disperses a una alçada de 2000 ft
Cel ennuvolat a una alçada de 3500 ft
Probabilitat 30% :
Temporalment
l' 17 a les 18 UTC al 17 a les 21 UTC
Cel ennuvolat a una alçada de 1400 ft
xàfecs de pluja

TAF: NWWR 171700Z 1718/1818 11006KT 9999 SCT020 BKN035 PROB30 TEMPO 1718/1721 SHRA BKN014

Observacions i pronòstics meteorològics de més de 4000 aeroports (METAR i TAF).

Les estacions disponibles són els punts grocs i vermells al mapa.

Posi el ratolí al punt desitjat per veure el nom de l'estació.

Feu clic per veure les observacions i els pronòstics meteorològics.

Per canviar el mapa: feu clic els botons verds amb una creu de color negre per apropar; al botó verd amb un guió per allunyar la imatge; o en les fletxes verdes per a mapes adjacents.


METAR-TAF: